Terminal Aerodrome Forecast
Issued by NWS

Home | Current Version | Previous Version | Graphics & Text | Print | Product List | Glossary On
Versions: 1 2 3 4 5 6 7 8 9 10 11 12 13 14 15 16 17 18 19 20 21 22 23 24 25 26 27 28
000
FTUS43 KLOT 171742
TAFDPA
TAF
KDPA 171742Z 1718/1818 21011KT P6SM BKN080
     FM172100 22010KT 1 1/2SM -SN SCT010 OVC020
      TEMPO 1721/1723 3/4SM -SHSN BKN008 OVC014
     FM180000 27012KT P6SM SCT025
     FM180400 26007KT P6SM FEW250
     FM181100 17008KT P6SM FEW150 SCT250
     FM181600 17011KT P6SM SCT250=

USA.gov is the U.S. government's official web portal to all federal, state and local government web resources and services.